Time;durP1;ratioP1;P1;durP2;ratioP2;P2;SDS_P1;SDS_P2;PMS_P1;PMS_P2;Temp;Humidity;BMP_temperature;BMP_pressure;BME280_temperature;BME280_humidity;BME280_pressure;Samples;Min_cycle;Max_cycle;Signal;HPM_P1;HPM_P2
2021/03/23 00:00:23;;;;;;;14.82;7.45;;;;;;;5.04;100.00;102523.66;5041903;28;20106;-64
2021/03/23 00:02:54;;;;;;;11.07;7.65;;;;;;;5.05;100.00;102525.38;5042526;28;20052;-64
2021/03/23 00:05:20;;;;;;;11.88;7.60;;;;;;;5.05;100.00;102525.38;5042124;28;20083;-63
2021/03/23 00:07:46;;;;;;;12.43;7.72;;;;;;;5.00;100.00;102524.69;5042586;28;20048;-63
2021/03/23 00:12:40;;;;;;;10.95;7.38;;;;;;;5.12;100.00;102526.88;5058158;22;20102;-65
2021/03/23 00:15:08;;;;;;;15.30;7.35;;;;;;;5.05;100.00;102523.59;5059095;28;20056;-61
2021/03/23 00:17:35;;;;;;;13.68;8.00;;;;;;;5.04;100.00;102521.84;5060812;28;20045;-63
2021/03/23 00:20:01;;;;;;;14.25;7.82;;;;;;;5.00;100.00;102532.69;5061537;28;20136;-63
2021/03/23 00:22:27;;;;;;;13.32;8.43;;;;;;;4.95;100.00;102538.22;5095535;22;20757;-63
2021/03/23 00:24:53;;;;;;;12.73;8.23;;;;;;;4.89;100.00;102531.31;5061599;28;20056;-63
2021/03/23 00:27:19;;;;;;;12.70;8.25;;;;;;;4.94;100.00;102532.94;5060281;28;20049;-63
2021/03/23 00:29:46;;;;;;;13.52;8.63;;;;;;;4.90;100.00;102527.72;5060268;28;20056;-63
2021/03/23 00:32:12;;;;;;;16.10;8.27;;;;;;;4.95;100.00;102526.66;5059873;28;20057;-62
2021/03/23 00:34:39;;;;;;;13.90;8.80;;;;;;;5.00;100.00;102522.03;5060353;28;22047;-65
2021/03/23 00:37:05;;;;;;;14.65;8.38;;;;;;;4.97;100.00;102524.81;5058394;28;20143;-64
2021/03/23 00:39:31;;;;;;;13.75;8.52;;;;;;;4.97;100.00;102515.00;5060703;28;20041;-63
2021/03/23 00:41:57;;;;;;;13.25;9.05;;;;;;;4.83;100.00;102512.88;5059460;28;20053;-64
2021/03/23 00:44:23;;;;;;;15.20;8.65;;;;;;;4.76;100.00;102515.84;5061318;28;20048;-62
2021/03/23 00:46:49;;;;;;;13.63;9.02;;;;;;;4.71;100.00;102513.31;5060248;28;20496;-62
2021/03/23 00:49:15;;;;;;;14.50;8.98;;;;;;;4.66;100.00;102512.63;5059764;28;20079;-62
2021/03/23 00:51:42;;;;;;;15.68;8.05;;;;;;;4.54;100.00;102516.63;5058242;28;20068;-62
2021/03/23 00:54:08;;;;;;;13.43;8.35;;;;;;;4.42;100.00;102512.63;5060966;28;20567;-62
2021/03/23 00:56:34;;;;;;;13.02;8.65;;;;;;;4.31;100.00;102509.44;5060525;28;20040;-63
2021/03/23 00:58:59;;;;;;;13.20;8.15;;;;;;;4.31;100.00;102499.66;5059526;28;20063;-62
2021/03/23 01:01:25;;;;;;;14.63;8.73;;;;;;;4.19;100.00;102510.75;5058198;28;20489;-64
2021/03/23 01:03:51;;;;;;;12.18;8.02;;;;;;;4.12;100.00;102495.91;5058891;28;20055;-62
2021/03/23 01:06:17;;;;;;;11.75;8.20;;;;;;;4.05;100.00;102487.28;5059513;28;20049;-63
2021/03/23 01:08:44;;;;;;;13.75;7.70;;;;;;;3.98;100.00;102486.59;5059662;28;20208;-63
2021/03/23 01:11:10;;;;;;;13.55;8.57;;;;;;;3.95;100.00;102485.84;5056272;28;20049;-62
2021/03/23 01:13:36;;;;;;;15.60;8.90;;;;;;;3.93;100.00;102483.25;5060106;28;20501;-62
2021/03/23 01:16:04;;;;;;;11.18;7.70;;;;;;;3.92;100.00;102481.50;5057525;28;20131;-64
2021/03/23 01:18:30;;;;;;;11.30;7.43;;;;;;;3.93;100.00;102477.03;5059603;28;20080;-64
2021/03/23 01:20:56;;;;;;;12.80;8.18;;;;;;;3.94;100.00;102471.66;5058503;28;20053;-62
2021/03/23 01:23:22;;;;;;;12.77;7.57;;;;;;;3.85;100.00;102472.81;5059482;28;20139;-63
2021/03/23 01:25:48;;;;;;;11.10;7.35;;;;;;;3.80;100.00;102476.59;5060091;28;20144;-62
2021/03/23 01:28:14;;;;;;;10.70;6.97;;;;;;;3.79;100.00;102478.38;5058204;28;20056;-62
2021/03/23 01:30:40;;;;;;;11.38;7.47;;;;;;;3.84;100.00;102480.88;5058433;28;20456;-62
2021/03/23 01:33:06;;;;;;;11.77;6.88;;;;;;;3.88;100.00;102486.97;5059088;28;20052;-62
2021/03/23 01:35:32;;;;;;;12.52;7.07;;;;;;;3.92;100.00;102485.97;5058173;28;20497;-63
2021/03/23 01:37:58;;;;;;;12.85;7.28;;;;;;;3.98;100.00;102486.59;5058393;28;20424;-62
2021/03/23 01:40:26;;;;;;;12.35;6.80;;;;;;;4.00;100.00;102490.06;5058617;28;20061;-62
2021/03/23 01:42:56;;;;;;;11.45;6.55;;;;;;;4.03;100.00;102491.78;5060055;28;20383;-62
2021/03/23 01:45:27;;;;;;;14.23;7.50;;;;;;;4.08;100.00;102484.50;5059508;28;20052;-62
2021/03/23 01:47:55;;;;;;;12.55;7.43;;;;;;;4.11;100.00;102483.50;5059983;28;20049;-62
2021/03/23 01:50:23;;;;;;;11.17;7.27;;;;;;;4.13;100.00;102482.53;5059478;28;20422;-65
2021/03/23 01:52:57;;;;;;;14.27;6.97;;;;;;;4.15;100.00;102479.81;5058154;28;21605;-62
2021/03/23 01:55:23;;;;;;;15.50;7.57;;;;;;;4.16;100.00;102490.41;5059429;28;20411;-62
2021/03/23 01:57:51;;;;;;;13.20;7.35;;;;;;;4.19;100.00;102476.97;5059669;28;20060;-62
2021/03/23 02:00:20;;;;;;;12.32;7.18;;;;;;;4.19;100.00;102484.97;5059547;28;20045;-63
2021/03/23 02:02:47;;;;;;;11.95;7.65;;;;;;;4.21;100.00;102483.13;5059410;28;20060;-62
2021/03/23 02:05:20;;;;;;;12.05;7.10;;;;;;;4.21;100.00;102483.13;5057201;28;20056;-63
2021/03/23 02:07:46;;;;;;;12.13;7.60;;;;;;;4.26;100.00;102482.09;5060110;28;20041;-63
2021/03/23 02:10:14;;;;;;;15.30;7.53;;;;;;;4.26;100.00;102484.78;5058973;28;20044;-64
2021/03/23 02:12:40;;;;;;;12.55;6.63;;;;;;;4.25;100.00;102472.38;5059437;28;20060;-64
2021/03/23 02:15:08;;;;;;;16.92;7.28;;;;;;;4.27;100.00;102475.81;5059216;28;20056;-62
2021/03/23 02:17:37;;;;;;;11.73;6.90;;;;;;;4.27;100.00;102476.72;5057667;28;20451;-63
2021/03/23 02:20:10;;;;;;;10.95;6.60;;;;;;;4.29;100.00;102474.84;5058764;28;20060;-65
2021/03/23 02:22:38;;;;;;;12.15;6.65;;;;;;;4.32;100.00;102473.88;5059391;28;20068;-63
2021/03/23 02:25:06;;;;;;;9.80;6.35;;;;;;;4.36;100.00;102464.84;5058349;28;20056;-62
2021/03/23 02:27:32;;;;;;;13.95;7.15;;;;;;;4.32;100.00;102473.88;5057347;28;20056;-62
2021/03/23 02:30:00;;;;;;;19.80;7.55;;;;;;;4.31;100.00;102472.13;5058465;28;20056;-62
2021/03/23 02:32:26;;;;;;;13.95;6.90;;;;;;;4.37;100.00;102461.25;5058568;28;20045;-64
2021/03/23 02:34:53;;;;;;;12.68;6.80;;;;;;;4.36;100.00;102448.88;5058459;28;20548;-63
2021/03/23 02:37:19;;;;;;;13.05;7.70;;;;;;;4.33;100.00;102448.97;5058484;28;20098;-62
2021/03/23 02:39:46;;;;;;;13.27;7.65;;;;;;;4.30;100.00;102447.28;5058218;28;20095;-62
2021/03/23 02:42:12;;;;;;;13.35;7.82;;;;;;;4.44;100.00;102451.25;5058268;28;20061;-63
2021/03/23 02:44:40;;;;;;;13.80;7.97;;;;;;;4.41;100.00;102451.34;5063460;28;20063;-62
2021/03/23 02:47:07;;;;;;;14.48;7.82;;;;;;;4.38;100.00;102449.66;5062531;28;20116;-64
2021/03/23 02:49:33;;;;;;;11.65;7.05;;;;;;;4.40;100.00;102447.78;5061779;28;20045;-62
2021/03/23 02:51:59;;;;;;;13.20;7.65;;;;;;;4.42;100.00;102442.41;5061519;28;20715;-63
2021/03/23 02:54:25;;;;;;;15.70;7.53;;;;;;;4.46;100.00;102444.94;5062636;28;20056;-65
2021/03/23 02:56:52;;;;;;;14.98;7.50;;;;;;;4.41;100.00;102430.88;5061965;28;20068;-64
2021/03/23 02:59:18;;;;;;;12.52;7.55;;;;;;;4.46;100.00;102430.69;5062479;28;20426;-62
2021/03/23 03:01:44;;;;;;;13.13;7.32;;;;;;;4.43;100.00;102441.50;5061603;28;20056;-62
2021/03/23 03:04:10;;;;;;;13.55;7.50;;;;;;;4.43;100.00;102429.06;5062014;28;20177;-63
2021/03/23 03:06:36;;;;;;;13.63;7.45;;;;;;;4.47;100.00;102422.66;5062971;28;20536;-62
2021/03/23 03:09:03;;;;;;;13.55;7.75;;;;;;;4.50;100.00;102419.88;5061968;28;20057;-63
2021/03/23 03:11:29;;;;;;;17.63;8.65;;;;;;;4.49;100.00;102417.25;5061796;28;20056;-62
2021/03/23 03:13:56;;;;;;;14.77;8.48;;;;;;;4.50;100.00;102422.53;5062334;28;20053;-62
2021/03/23 03:16:22;;;;;;;16.40;9.15;;;;;;;4.48;100.00;102419.06;5060748;28;20040;-63
2021/03/23 03:18:48;;;;;;;16.30;8.55;;;;;;;4.51;100.00;102410.09;5060730;28;20067;-63
2021/03/23 03:21:15;;;;;;;18.58;8.63;;;;;;;4.44;100.00;102409.44;5060574;28;20056;-63
2021/03/23 03:23:40;;;;;;;15.65;8.35;;;;;;;4.47;100.00;102411.13;5062279;28;20052;-64
2021/03/23 03:26:07;;;;;;;13.68;8.52;;;;;;;4.49;100.00;102427.91;5060354;28;20055;-62
2021/03/23 03:28:33;;;;;;;13.45;8.00;;;;;;;4.50;100.00;102424.34;5062295;28;20098;-62
2021/03/23 03:31:00;;;;;;;15.05;8.40;;;;;;;4.47;100.00;102424.47;5060927;28;20056;-63
2021/03/23 03:33:26;;;;;;;15.23;8.32;;;;;;;4.47;100.00;102422.66;5061568;28;20079;-64
2021/03/23 03:35:53;;;;;;;15.45;8.40;;;;;;;4.47;100.00;102421.78;5061384;28;20056;-62
2021/03/23 03:38:20;;;;;;;17.50;9.00;;;;;;;4.50;100.00;102421.66;5060752;28;20478;-62
2021/03/23 03:40:49;;;;;;;15.40;8.27;;;;;;;4.47;100.00;102422.66;5061753;28;20358;-62
2021/03/23 03:43:18;;;;;;;14.95;8.57;;;;;;;4.48;100.00;102421.72;5061637;28;20502;-62
2021/03/23 03:45:44;;;;;;;17.83;9.15;;;;;;;4.46;100.00;102418.25;5062085;28;20516;-62
2021/03/23 03:48:11;;;;;;;16.77;9.15;;;;;;;4.44;100.00;102422.75;5061483;28;20676;-62
2021/03/23 03:50:38;;;;;;;14.93;8.98;;;;;;;4.44;100.00;102417.44;5059453;28;20080;-62
2021/03/23 03:53:04;;;;;;;17.23;8.82;;;;;;;4.46;100.00;102412.03;5060301;28;20063;-62
2021/03/23 03:55:33;;;;;;;19.40;9.30;;;;;;;4.47;100.00;102419.13;5061722;28;20122;-62
2021/03/23 03:57:59;;;;;;;23.90;10.13;;;;;;;4.47;100.00;102417.31;5061203;28;20053;-62
2021/03/23 04:00:29;;;;;;;16.23;9.48;;;;;;;4.44;100.00;102420.09;5059802;28;20044;-63
2021/03/23 04:02:55;;;;;;;18.17;9.90;;;;;;;4.49;100.00;102411.91;5061853;28;20055;-62
2021/03/23 04:05:24;;;;;;;17.92;9.80;;;;;;;4.41;100.00;102412.22;5061820;28;20045;-61
2021/03/23 04:07:51;;;;;;;20.98;10.65;;;;;;;4.44;100.00;102412.09;5061444;28;20056;-62
2021/03/23 04:10:18;;;;;;;18.50;10.45;;;;;;;4.39;100.00;102411.41;5059270;28;20049;-62
2021/03/23 04:12:44;;;;;;;17.98;10.82;;;;;;;4.35;100.00;102413.31;5060287;28;20060;-62
2021/03/23 04:15:16;;;;;;;22.38;11.55;;;;;;;4.39;100.00;102411.41;5060401;28;20137;-64
2021/03/23 04:17:41;;;;;;;19.17;11.48;;;;;;;4.41;100.00;102414.88;5060389;28;20443;-62
2021/03/23 04:20:09;;;;;;;18.90;10.98;;;;;;;4.39;100.00;102414.09;5059693;28;20079;-62
2021/03/23 04:22:36;;;;;;;23.23;12.98;;;;;;;4.41;100.00;102412.22;5059499;28;20115;-62
2021/03/23 04:25:03;;;;;;;21.50;11.85;;;;;;;4.43;100.00;102422.81;5061687;28;20053;-63
2021/03/23 04:27:29;;;;;;;20.08;11.35;;;;;;;4.42;100.00;102421.06;5059588;28;20049;-62
2021/03/23 04:29:55;;;;;;;20.42;11.80;;;;;;;4.42;100.00;102416.63;5061001;28;20052;-62
2021/03/23 04:32:21;;;;;;;17.58;11.52;;;;;;;4.46;100.00;102418.25;5058661;28;20049;-62
2021/03/23 04:34:47;;;;;;;24.95;13.02;;;;;;;4.43;100.00;102412.16;5061030;28;20394;-62
2021/03/23 04:37:13;;;;;;;23.58;13.10;;;;;;;4.40;100.00;102413.13;5059317;28;20045;-63
2021/03/23 04:39:39;;;;;;;21.48;12.95;;;;;;;4.42;100.00;102405.97;5059947;28;20413;-64
2021/03/23 04:42:06;;;;;;;23.15;13.75;;;;;;;4.45;100.00;102415.66;5059896;28;20099;-63
2021/03/23 04:44:32;;;;;;;26.48;13.40;;;;;;;4.46;100.00;102402.28;5061072;28;20048;-64
2021/03/23 04:46:58;;;;;;;25.48;13.48;;;;;;;4.48;100.00;102407.53;5060378;28;20401;-62
2021/03/23 04:49:24;;;;;;;26.73;13.88;;;;;;;4.45;100.00;102413.84;5059438;28;20041;-62
2021/03/23 04:51:50;;;;;;;27.52;14.77;;;;;;;4.38;100.00;102410.53;5060268;28;20051;-62
2021/03/23 04:54:16;;;;;;;25.15;14.93;;;;;;;4.36;100.00;102412.41;5060432;28;20129;-62
2021/03/23 04:56:44;;;;;;;28.35;14.57;;;;;;;4.33;100.00;102406.31;5060365;28;20067;-63
2021/03/23 04:59:11;;;;;;;27.42;15.48;;;;;;;4.28;100.00;102406.47;5053476;28;21698;-62
2021/03/23 05:01:38;;;;;;;26.52;14.80;;;;;;;4.30;100.00;102409.97;5059984;28;20083;-62
2021/03/23 05:04:06;;;;;;;31.20;15.50;;;;;;;4.30;100.00;102417.97;5060433;28;20461;-62
2021/03/23 05:06:33;;;;;;;30.63;15.98;;;;;;;4.19;100.00;102421.00;5059988;28;20048;-62
2021/03/23 05:08:58;;;;;;;29.73;15.85;;;;;;;4.23;100.00;102418.25;5059223;28;20060;-63
2021/03/23 05:11:26;;;;;;;29.27;13.95;;;;;;;4.24;100.00;102422.63;5058751;28;20068;-62
2021/03/23 05:13:54;;;;;;;29.73;15.20;;;;;;;4.22;100.00;102422.69;5060140;28;20068;-62
2021/03/23 05:16:20;;;;;;;30.25;15.50;;;;;;;4.20;100.00;102425.41;5057169;28;20045;-62
2021/03/23 05:18:47;;;;;;;24.95;14.40;;;;;;;4.18;100.00;102421.97;5059580;28;20444;-63
2021/03/23 05:21:13;;;;;;;25.88;15.13;;;;;;;4.16;100.00;102421.13;5058470;28;20497;-62
2021/03/23 05:23:40;;;;;;;26.98;15.25;;;;;;;4.18;100.00;102415.72;5059977;28;20383;-64
2021/03/23 05:26:07;;;;;;;33.42;16.65;;;;;;;4.18;100.00;102421.06;5058540;28;20187;-63
2021/03/23 05:28:33;;;;;;;28.00;16.15;;;;;;;4.24;100.00;102414.66;5060448;28;20067;-64
2021/03/23 05:31:00;;;;;;;31.30;16.95;;;;;;;4.25;100.00;102413.72;5058016;28;20044;-64
2021/03/23 05:33:26;;;;;;;29.60;16.67;;;;;;;4.18;100.00;102413.97;5059832;28;20045;-64
2021/03/23 05:35:56;;;;;;;29.15;17.50;;;;;;;4.27;100.00;102414.53;5058282;28;20061;-64
2021/03/23 05:38:23;;;;;;;29.38;17.63;;;;;;;4.24;100.00;102418.19;5058864;28;20055;-62
2021/03/23 05:40:50;;;;;;;33.15;17.70;;;;;;;4.26;100.00;102424.34;5058511;28;20048;-62
2021/03/23 05:43:37;;;;;;;33.78;18.13;;;;;;;4.25;100.00;102419.06;5060016;28;20045;-63
2021/03/23 05:46:17;;;;;;;31.98;17.75;;;;;;;4.21;100.00;102413.84;5059572;28;20459;-61
2021/03/23 05:48:55;;;;;;;33.10;18.30;;;;;;;4.25;100.00;102413.72;5059755;28;20048;-63
2021/03/23 05:51:25;;;;;;;39.45;18.98;;;;;;;4.07;100.00;102415.28;5059069;28;20105;-62
2021/03/23 05:53:57;;;;;;;30.08;18.70;;;;;;;4.06;100.00;102417.06;5060018;28;20083;-62
2021/03/23 05:56:24;;;;;;;32.10;18.95;;;;;;;4.01;100.00;102422.56;5058706;28;20105;-62
2021/03/23 05:58:52;;;;;;;31.42;19.67;;;;;;;3.99;100.00;102424.41;5058698;28;20045;-64
2021/03/23 06:01:24;;;;;;;36.28;21.00;;;;;;;3.99;100.00;102434.19;5058279;28;20080;-63
2021/03/23 06:03:57;;;;;;;33.75;20.15;;;;;;;4.04;100.00;102437.56;5059208;28;20071;-62
2021/03/23 06:06:37;;;;;;;40.30;20.85;;;;;;;4.02;100.00;102444.75;5059456;28;20049;-62
2021/03/23 06:09:04;;;;;;;39.63;20.50;;;;;;;4.11;100.00;102444.41;5057678;28;20059;-62
2021/03/23 06:11:42;;;;;;;32.90;19.55;;;;;;;4.11;100.00;102439.09;5059316;28;20497;-62
2021/03/23 06:14:26;;;;;;;33.58;20.58;;;;;;;4.16;100.00;102446.91;5058389;28;20057;-63
2021/03/23 06:17:05;;;;;;;44.78;20.38;;;;;;;4.14;100.00;102443.44;5060408;28;20416;-62
2021/03/23 06:19:41;;;;;;;37.90;21.38;;;;;;;4.19;100.00;102450.31;5061975;28;20676;-62
2021/03/23 06:22:29;;;;;;;40.42;21.27;;;;;;;4.33;100.00;102446.31;5062320;28;20097;-64
2021/03/23 06:25:01;;;;;;;33.17;19.73;;;;;;;4.44;100.00;102446.75;5061822;28;20070;-61
2021/03/23 06:27:35;;;;;;;38.08;20.42;;;;;;;4.39;100.00;102451.41;5063537;28;20048;-63
2021/03/23 06:30:20;;;;;;;35.88;20.52;;;;;;;4.38;100.00;102452.31;5061629;28;20057;-62
2021/03/23 06:35:17;;;;;;;41.45;22.77;;;;;;;4.27;100.00;102450.06;5099521;22;20048;-62
2021/03/23 06:37:44;;;;;;;34.05;20.98;;;;;;;4.34;100.00;102456.03;5086172;28;20353;-63
2021/03/23 06:40:12;;;;;;;37.88;22.30;;;;;;;4.39;100.00;102460.25;5087844;28;20044;-62
2021/03/23 06:42:40;;;;;;;41.67;22.23;;;;;;;4.33;100.00;102462.31;5090464;28;20051;-64
2021/03/23 06:45:32;;;;;;;38.53;22.25;;;;;;;4.33;100.00;102456.97;5090668;28;20064;-64
2021/03/23 06:48:20;;;;;;;42.42;23.35;;;;;;;4.42;100.00;102456.63;5089318;28;20048;-64
2021/03/23 06:50:47;;;;;;;39.55;22.67;;;;;;;4.37;100.00;102471.91;5089539;28;20070;-63
2021/03/23 06:53:15;;;;;;;41.20;23.58;;;;;;;4.36;100.00;102468.38;5090753;28;20052;-64
2021/03/23 06:55:45;;;;;;;40.25;23.17;;;;;;;4.48;100.00;102469.72;5089525;28;20048;-65
2021/03/23 06:58:31;;;;;;;38.15;22.95;;;;;;;4.49;100.00;102476.81;5087797;28;20512;-64
2021/03/23 07:01:18;;;;;;;36.25;22.02;;;;;;;4.68;100.00;102477.00;5088026;28;20052;-62
2021/03/23 07:03:47;;;;;;;35.10;22.55;;;;;;;4.89;100.00;102485.09;5089193;28;20040;-65
2021/03/23 07:06:20;;;;;;;39.42;22.83;;;;;;;4.91;100.00;102489.41;5090529;28;20060;-62
2021/03/23 07:09:04;;;;;;;44.60;24.75;;;;;;;4.90;100.00;102484.16;5092019;28;20060;-62
2021/03/23 07:11:49;;;;;;;43.25;24.88;;;;;;;4.94;100.00;102472.44;5091255;28;20699;-62
2021/03/23 07:14:22;;;;;;;39.63;23.73;;;;;;;5.01;100.00;102467.75;5090350;28;20048;-62
2021/03/23 07:16:48;;;;;;;47.50;25.83;;;;;;;5.08;100.00;102470.09;5090599;28;20100;-62
2021/03/23 07:19:14;;;;;;;42.55;24.27;;;;;;;5.16;100.00;102469.78;5090061;28;20048;-62
2021/03/23 07:21:46;;;;;;;48.38;27.88;;;;;;;5.23;100.00;102473.94;5090567;28;20055;-62
2021/03/23 07:24:16;;;;;;;60.95;28.95;;;;;;;5.18;100.00;102470.63;5089530;28;20051;-62
2021/03/23 07:26:53;;;;;;;53.42;29.42;;;;;;;5.23;100.00;102475.75;5091695;28;20044;-62
2021/03/23 07:29:30;;;;;;;61.22;29.98;;;;;;;5.19;100.00;102474.13;5090824;28;20060;-64
2021/03/23 07:32:06;;;;;;;64.55;32.05;;;;;;;5.20;100.00;102466.06;5091355;28;20174;-63
2021/03/23 07:34:43;;;;;;;67.50;32.50;;;;;;;5.28;100.00;102470.22;5089502;28;20044;-64
2021/03/23 07:37:13;;;;;;;69.18;33.20;;;;;;;5.30;100.00;102468.34;5091018;28;20052;-64
2021/03/23 07:39:43;;;;;;;72.72;34.85;;;;;;;5.34;100.00;102475.31;5089850;28;20044;-62
2021/03/23 07:42:25;;;;;;;66.82;33.92;;;;;;;5.31;100.00;102475.44;5090895;28;20048;-62
2021/03/23 07:44:55;;;;;;;70.55;33.53;;;;;;;5.34;100.00;102478.00;5082751;28;20056;-62
2021/03/23 07:47:31;;;;;;;78.75;36.63;;;;;;;5.36;100.00;102481.44;5076533;28;20048;-62
2021/03/23 07:52:54;;;;;;;93.15;38.83;;;;;;;5.09;100.00;102481.63;5081511;22;20489;-64
2021/03/23 07:55:23;;;;;;;93.75;39.15;;;;;;;5.02;100.00;102496.16;5062231;28;20051;-62
2021/03/23 07:58:03;;;;;;;106.43;41.80;;;;;;;5.03;100.00;102493.41;5063275;28;20048;-62
2021/03/23 08:01:19;;;;;;;110.45;44.03;;;;;;;5.03;100.00;102487.22;5062525;28;20049;-62
2021/03/23 08:03:59;;;;;;;118.40;44.33;;;;;;;5.05;100.00;102477.34;4959536;28;20077;-62
2021/03/23 08:06:33;;;;;;;112.72;43.95;;;;;;;5.04;100.00;102484.50;4980346;28;20047;-62
2021/03/23 08:09:17;;;;;;;113.13;43.17;;;;;;;5.15;100.00;102478.72;5027542;28;20075;-61
2021/03/23 08:11:54;;;;;;;117.82;45.97;;;;;;;5.10;100.00;102478.03;5058935;28;20855;-65
2021/03/23 08:14:42;;;;;;;114.85;45.63;;;;;;;5.25;100.00;102480.09;5058783;28;20094;-63
2021/03/23 08:17:31;;;;;;;121.40;45.30;;;;;;;5.34;100.00;102483.31;5060253;28;20041;-61
2021/03/23 08:20:22;;;;;;;125.10;46.80;;;;;;;5.37;100.00;102477.84;5061235;28;20053;-61
2021/03/23 08:22:59;;;;;;;105.75;43.55;;;;;;;5.51;100.00;102482.66;5059342;28;20508;-61
2021/03/23 08:25:41;;;;;;;116.10;45.88;;;;;;;5.57;100.00;102475.25;5059797;28;20079;-64
2021/03/23 08:28:39;;;;;;;114.47;43.92;;;;;;;5.53;100.00;102476.28;5061276;28;20489;-61
2021/03/23 08:31:38;;;;;;;117.10;42.75;;;;;;;5.63;100.00;102468.78;5059513;28;20048;-63
2021/03/23 08:34:24;;;;;;;112.07;42.30;;;;;;;5.58;100.00;102474.31;5048436;28;20082;-62
2021/03/23 08:37:36;;;;;;;117.63;44.17;;;;;;;5.71;100.00;102489.81;5061831;28;20052;-61
2021/03/23 08:40:07;;;;;;;113.90;46.15;;;;;;;5.69;100.00;102489.88;4993558;28;20086;-61
2021/03/23 08:42:34;;;;;;;113.13;44.38;;;;;;;5.80;100.00;102492.13;5060579;28;20543;-61
2021/03/23 08:45:04;;;;;;;117.05;45.15;;;;;;;5.84;100.00;102488.38;5060117;28;20060;-61
2021/03/23 08:47:34;;;;;;;125.38;44.88;;;;;;;5.92;100.00;102482.72;5060402;28;20041;-62
2021/03/23 08:50:05;;;;;;;125.57;46.63;;;;;;;6.05;100.00;102480.38;5058612;28;20693;-61
2021/03/23 08:52:41;;;;;;;122.28;46.17;;;;;;;6.11;100.00;102480.13;5059767;28;20459;-61
2021/03/23 08:55:23;;;;;;;125.35;48.72;;;;;;;6.10;100.00;102486.41;5058321;28;20059;-62
2021/03/23 08:57:55;;;;;;;109.10;45.28;;;;;;;6.16;100.00;102490.63;5060598;28;20060;-61
2021/03/23 09:00:51;;;;;;;121.00;46.10;;;;;;;6.15;100.00;102487.06;5057967;28;20056;-61
2021/03/23 09:03:39;;;;;;;99.40;43.78;;;;;;;6.36;100.00;102495.97;5059701;28;20055;-62
2021/03/23 09:06:06;;;;;;;109.67;42.53;;;;;;;6.35;100.00;102506.75;5056912;28;20446;-62
2021/03/23 09:08:39;;;;;;;112.03;43.50;;;;;;;6.43;100.00;102520.63;5059428;28;20048;-64
2021/03/23 09:11:07;;;;;;;103.63;42.55;;;;;;;6.44;100.00;102514.34;5057728;28;20072;-62
2021/03/23 09:14:14;;;;;;;113.63;44.97;;;;;;;6.35;100.00;102514.75;5058118;28;20055;-62
2021/03/23 09:17:15;;;;;;;104.05;42.65;;;;;;;6.27;100.00;102517.75;5058705;28;20052;-63
2021/03/23 09:19:55;;;;;;;107.38;42.42;;;;;;;6.42;100.00;102513.53;5056270;28;20063;-62
2021/03/23 09:22:40;;;;;;;105.95;44.55;;;;;;;6.51;100.00;102525.63;5058996;28;20054;-62
2021/03/23 09:25:48;;;;;;;94.47;42.47;;;;;;;6.62;100.00;102526.88;5057278;28;20060;-62
2021/03/23 09:28:46;;;;;;;106.57;42.83;;;;;;;6.64;100.00;102519.66;5057861;28;20094;-62
2021/03/23 09:31:19;;;;;;;97.03;42.92;;;;;;;6.68;100.00;102516.84;5057641;28;20056;-62
2021/03/23 09:33:49;;;;;;;96.72;40.55;;;;;;;6.70;100.00;102506.94;5059138;28;20490;-63
2021/03/23 09:36:35;;;;;;;86.40;40.70;;;;;;;6.79;100.00;102506.53;5056042;28;20049;-62
2021/03/23 09:39:43;;;;;;;103.72;41.50;;;;;;;6.64;100.00;102508.06;5056328;28;20066;-62
2021/03/23 09:42:35;;;;;;;102.28;40.20;;;;;;;6.61;100.00;102519.81;5055711;28;20052;-61
2021/03/23 09:45:34;;;;;;;105.60;42.35;;;;;;;6.59;100.00;102518.13;5060479;28;20128;-62
2021/03/23 09:48:17;;;;;;;;;;;;;;;6.84;100.00;102507.16;5056255;28;20053;-62
2021/03/23 09:51:00;;;;;;;96.70;38.95;;;;;;;6.92;100.00;102510.38;5049896;28;19924;-62
2021/03/23 09:53:34;;;;;;;104.05;40.85;;;;;;;6.82;100.00;102507.25;5058142;28;20056;-62
2021/03/23 09:56:06;;;;;;;97.90;40.60;;;;;;;6.71;100.00;102503.31;5058624;28;20053;-62
2021/03/23 09:58:32;;;;;;;90.70;41.38;;;;;;;6.72;100.00;102503.25;5059768;28;20064;-62
2021/03/23 10:01:16;;;;;;;104.88;43.53;;;;;;;6.79;100.00;102496.69;5057481;28;20504;-63
2021/03/23 10:03:43;;;;;;;91.72;40.67;;;;;;;6.88;100.00;102500.75;5060185;28;20052;-61
2021/03/23 10:06:13;;;;;;;93.38;40.67;;;;;;;6.83;100.00;102498.28;5059347;28;20067;-64
2021/03/23 10:08:50;;;;;;;91.28;39.85;;;;;;;7.06;100.00;102488.28;5059165;28;20045;-62
2021/03/23 10:11:18;;;;;;;87.10;40.15;;;;;;;7.23;100.00;102490.16;5055781;28;20055;-62
2021/03/23 10:13:47;;;;;;;78.20;38.40;;;;;;;7.52;100.00;102485.19;5060219;28;20044;-62
2021/03/23 10:16:22;;;;;;;88.82;40.90;;;;;;;7.61;100.00;102490.09;5055531;28;20675;-63
2021/03/23 10:18:48;;;;;;;84.25;38.95;;;;;;;7.67;100.00;102495.16;5059782;28;20040;-62
2021/03/23 10:21:17;;;;;;;87.00;40.10;;;;;;;7.63;100.00;102485.53;5057179;28;20553;-62
2021/03/23 10:23:45;;;;;;;81.75;38.85;;;;;;;7.82;100.00;102498.88;5055231;28;20504;-62
2021/03/23 10:26:12;;;;;;;83.28;39.47;;;;;;;7.92;100.00;102485.88;5057968;28;20053;-62
2021/03/23 10:28:46;;;;;;;70.28;37.13;;;;;;;7.69;100.00;102487.88;5057252;28;20045;-61
2021/03/23 10:31:13;;;;;;;72.57;38.63;;;;;;;7.68;100.00;102494.19;5054832;28;20048;-62
2021/03/23 10:33:41;;;;;;;69.30;36.10;;;;;;;7.62;100.00;102486.47;5058579;28;20503;-65
2021/03/23 10:36:09;;;;;;;69.32;36.22;;;;;;;7.67;100.00;102487.09;5057464;28;20049;-62
2021/03/23 10:38:43;;;;;;;72.88;36.00;;;;;;;7.72;100.00;102498.44;5059687;28;20509;-63
2021/03/23 10:41:27;;;;;;;81.03;39.30;;;;;;;7.80;100.00;102495.41;5057428;28;20044;-62
2021/03/23 10:44:11;;;;;;;76.85;37.47;;;;;;;7.76;100.00;102495.59;5046726;28;20049;-64
2021/03/23 10:46:42;;;;;;;74.32;36.00;;;;;;;7.83;100.00;102492.56;5060530;28;20094;-64
2021/03/23 10:49:13;;;;;;;74.10;35.83;;;;;;;8.22;100.00;102495.94;5058969;28;20457;-62
2021/03/23 10:51:41;;;;;;;62.50;33.92;;;;;;;8.59;100.00;102481.44;5058175;28;20090;-63
2021/03/23 10:54:23;;;;;;;57.28;33.63;;;;;;;8.62;100.00;102487.63;5058747;28;20144;-64
2021/03/23 10:56:51;;;;;;;57.67;32.67;;;;;;;8.55;100.00;102481.69;5058775;28;20403;-65
2021/03/23 10:59:27;;;;;;;59.38;31.42;;;;;;;8.81;100.00;102479.44;5059345;28;20125;-63
2021/03/23 11:02:03;;;;;;;57.92;34.15;;;;;;;8.91;100.00;102476.13;5059051;28;20513;-65
2021/03/23 11:04:31;;;;;;;59.88;33.67;;;;;;;9.04;100.00;102468.25;5061617;28;20175;-63
2021/03/23 11:07:19;;;;;;;60.05;32.72;;;;;;;9.19;100.00;102465.66;5063439;28;20390;-63
2021/03/23 11:09:48;;;;;;;53.75;32.17;;;;;;;9.14;100.00;102478.47;5062216;28;20497;-63
2021/03/23 11:12:15;;;;;;;56.35;33.35;;;;;;;8.92;100.00;102479.69;5060591;28;20045;-64
2021/03/23 11:14:40;;;;;;;55.83;32.80;;;;;;;8.98;100.00;102479.34;5058530;28;20053;-63
2021/03/23 11:17:11;;;;;;;56.42;33.97;;;;;;;9.10;100.00;102462.53;5061058;28;20087;-64
2021/03/23 11:19:41;;;;;;;53.50;31.80;;;;;;;9.53;100.00;102463.72;5062096;28;20049;-63
2021/03/23 11:22:11;;;;;;;52.00;31.65;;;;;;;9.58;100.00;102464.28;5061153;28;20527;-63
2021/03/23 11:24:38;;;;;;;62.08;33.63;;;;;;;9.67;100.00;102466.44;5062012;28;20041;-63
2021/03/23 11:27:05;;;;;;;57.25;32.80;;;;;;;9.51;100.00;102476.34;5061105;28;20052;-63
2021/03/23 11:29:31;;;;;;;49.45;29.40;;;;;;;9.72;100.00;102469.72;5060457;28;20467;-62
2021/03/23 11:31:57;;;;;;;53.05;31.73;;;;;;;9.75;100.00;102458.78;5061458;28;20056;-62
2021/03/23 11:34:23;;;;;;;53.42;31.38;;;;;;;9.75;100.00;102460.63;5061235;28;20517;-63
2021/03/23 11:36:51;;;;;;;50.55;31.30;;;;;;;9.71;100.00;102451.84;5060817;28;20194;-65
2021/03/23 11:39:17;;;;;;;54.17;32.40;;;;;;;9.81;100.00;102458.41;5058263;28;20442;-64